createdAt,value
2017-10-05T00:00:49.286Z,1006.17
2017-10-05T00:01:49.272Z,1006.2
2017-10-05T00:02:49.256Z,1006.2
2017-10-05T00:03:49.242Z,1006.18
2017-10-05T00:04:49.221Z,1006.26
2017-10-05T00:05:49.206Z,1006.25
2017-10-05T00:06:49.188Z,1006.34
2017-10-05T00:07:49.174Z,1006.32
2017-10-05T00:08:49.156Z,1006.26
2017-10-05T00:09:49.141Z,1006.19
2017-10-05T00:10:49.327Z,1006.18
2017-10-05T00:11:49.112Z,1006.15
2017-10-05T00:12:49.093Z,1006.07
2017-10-05T00:13:49.077Z,1006.08
2017-10-05T00:14:49.060Z,1006.08
2017-10-05T00:15:49.045Z,1006
2017-10-05T00:16:49.027Z,1006.02
2017-10-05T00:17:49.014Z,1005.92
2017-10-05T00:18:49.001Z,1005.91
2017-10-05T00:19:48.980Z,1005.93
2017-10-05T00:20:48.964Z,1005.89
2017-10-05T00:21:48.947Z,1005.87
2017-10-05T00:22:48.932Z,1005.87
2017-10-05T00:23:48.915Z,1005.82
2017-10-05T00:24:48.901Z,1005.82
2017-10-05T00:25:48.885Z,1005.7
2017-10-05T00:26:48.869Z,1005.68
2017-10-05T00:27:48.852Z,1005.66
2017-10-05T00:28:48.834Z,1005.69
2017-10-05T00:30:48.803Z,1005.6
2017-10-05T00:31:48.787Z,1005.62
2017-10-05T00:32:48.769Z,1005.6
2017-10-05T00:33:48.755Z,1005.56
2017-10-05T00:34:48.737Z,1005.57
2017-10-05T00:35:48.721Z,1005.53
2017-10-05T00:36:48.706Z,1005.55
2017-10-05T00:37:48.687Z,1005.46
2017-10-05T00:38:48.674Z,1005.44
2017-10-05T00:39:48.655Z,1005.35
2017-10-05T00:40:48.639Z,1005.35
2017-10-05T00:41:48.621Z,1005.34
2017-10-05T00:42:48.606Z,1005.28
2017-10-05T00:43:48.590Z,1005.25
2017-10-05T00:44:48.575Z,1005.2
2017-10-05T00:45:48.556Z,1005.17
2017-10-05T00:46:48.540Z,1005.12
2017-10-05T00:47:48.525Z,1005.09
2017-10-05T00:48:48.508Z,1005.07
2017-10-05T00:49:48.492Z,1005.01
2017-10-05T00:50:48.476Z,1004.96
2017-10-05T00:51:48.461Z,1005.07
2017-10-05T00:52:48.443Z,1004.89
2017-10-05T00:53:48.428Z,1004.78
2017-10-05T00:54:48.412Z,1004.75
2017-10-05T00:55:48.395Z,1004.72
2017-10-05T00:56:48.378Z,1004.65
2017-10-05T00:57:48.359Z,1004.66
2017-10-05T00:58:48.345Z,1004.57
2017-10-05T00:59:48.334Z,1004.67
2017-10-05T01:00:48.313Z,1004.69
2017-10-05T01:01:48.295Z,1004.55
2017-10-05T01:02:48.282Z,1004.57
2017-10-05T01:03:48.261Z,1004.61
2017-10-05T01:04:48.245Z,1004.58
2017-10-05T01:05:48.230Z,1004.55
2017-10-05T01:06:48.214Z,1004.59
2017-10-05T01:07:48.199Z,1004.59
2017-10-05T01:08:48.182Z,1004.58
2017-10-05T01:09:48.165Z,1004.56
2017-10-05T01:10:48.147Z,1004.55
2017-10-05T01:11:48.131Z,1004.48
2017-10-05T01:12:48.114Z,1004.42
2017-10-05T01:13:48.099Z,1004.41
2017-10-05T01:14:48.083Z,1004.37
2017-10-05T01:15:48.066Z,1004.29
2017-10-05T01:16:48.049Z,1004.31
2017-10-05T01:17:48.033Z,1004.27
2017-10-05T01:18:48.015Z,1004.16
2017-10-05T01:19:48.000Z,1004.16
2017-10-05T01:20:47.984Z,1004.14
2017-10-05T01:21:47.971Z,1004.16
2017-10-05T01:22:47.952Z,1004.08
2017-10-05T01:23:47.934Z,1004.04
2017-10-05T01:24:47.917Z,1004.06
2017-10-05T01:25:47.900Z,1004.07
2017-10-05T01:26:47.885Z,1004.03
2017-10-05T01:27:47.868Z,1004.03
2017-10-05T01:28:47.853Z,1004.03
2017-10-05T01:29:47.836Z,1004.01
2017-10-05T01:30:47.823Z,1004.07
2017-10-05T01:31:47.803Z,1003.96
2017-10-05T01:32:47.786Z,1003.86
2017-10-05T01:33:47.769Z,1003.86
2017-10-05T01:34:47.756Z,1003.8
2017-10-05T01:35:47.737Z,1003.78
2017-10-05T01:36:47.719Z,1003.71
2017-10-05T01:37:47.704Z,1003.65
2017-10-05T01:38:47.688Z,1003.58
2017-10-05T01:39:47.671Z,1003.6
2017-10-05T01:40:47.656Z,1003.57
2017-10-05T01:41:47.639Z,1003.56
2017-10-05T01:42:47.622Z,1003.49
2017-10-05T01:43:47.605Z,1003.5
2017-10-05T01:44:47.589Z,1003.49
2017-10-05T01:45:47.575Z,1003.46
2017-10-05T01:46:47.557Z,1003.47
2017-10-05T01:47:47.540Z,1003.45
2017-10-05T01:48:47.529Z,1003.43
2017-10-05T01:49:47.509Z,1003.4
2017-10-05T01:50:47.491Z,1003.38
2017-10-05T01:51:47.472Z,1003.41
2017-10-05T01:52:47.464Z,1003.39
2017-10-05T01:53:47.444Z,1003.32
2017-10-05T01:54:47.431Z,1003.31
2017-10-05T01:55:47.407Z,1003.4
2017-10-05T01:56:47.394Z,1003.28
2017-10-05T01:57:47.377Z,1003.26
2017-10-05T01:58:47.386Z,1003.22
2017-10-05T01:59:47.341Z,1003.19
2017-10-05T02:00:47.329Z,1003.15
2017-10-05T02:01:47.313Z,1003.15
2017-10-05T02:02:47.317Z,1003.11
2017-10-05T02:03:47.277Z,1003.18
2017-10-05T02:04:47.282Z,1003.11
2017-10-05T02:05:47.243Z,1003.06
2017-10-05T02:06:47.226Z,1003.03
2017-10-05T02:07:47.210Z,1003.03
2017-10-05T02:08:47.199Z,1002.95
2017-10-05T02:09:47.178Z,1002.85
2017-10-05T02:10:47.161Z,1002.84
2017-10-05T02:11:47.144Z,1002.8
2017-10-05T02:12:47.129Z,1002.8
2017-10-05T02:13:47.112Z,1002.74
2017-10-05T02:14:47.096Z,1002.76
2017-10-05T02:15:47.085Z,1002.69
2017-10-05T02:16:47.065Z,1002.71
2017-10-05T02:17:47.049Z,1002.62
2017-10-05T02:18:47.031Z,1002.69
2017-10-05T02:19:47.014Z,1002.6
2017-10-05T02:20:46.996Z,1002.7
2017-10-05T02:21:46.981Z,1002.55
2017-10-05T02:22:46.967Z,1002.5
2017-10-05T02:23:46.947Z,1002.54
2017-10-05T02:24:46.932Z,1002.52
2017-10-05T02:25:46.919Z,1002.51
2017-10-05T02:26:46.899Z,1002.43
2017-10-05T02:27:46.883Z,1002.42
2017-10-05T02:28:46.868Z,1002.41
2017-10-05T02:29:46.850Z,1002.43
2017-10-05T02:30:46.836Z,1002.38
2017-10-05T02:31:46.817Z,1002.31
2017-10-05T02:32:46.801Z,1002.31
2017-10-05T02:33:46.784Z,1002.35
2017-10-05T02:34:46.768Z,1002.31
2017-10-05T02:35:46.751Z,1002.32
2017-10-05T02:36:46.734Z,1002.24
2017-10-05T02:37:46.718Z,1002.29
2017-10-05T02:38:46.702Z,1002.37
2017-10-05T02:39:46.684Z,1002.29
2017-10-05T02:40:46.669Z,1002.26
2017-10-05T02:41:46.655Z,1002.26
2017-10-05T02:42:46.637Z,1002.23
2017-10-05T02:43:46.620Z,1002.24
2017-10-05T02:44:46.604Z,1002.26
2017-10-05T02:45:46.587Z,1002.2
2017-10-05T02:46:46.571Z,1002.24
2017-10-05T02:47:46.557Z,1002.19
2017-10-05T02:48:46.544Z,1002.19
2017-10-05T02:49:46.520Z,1002.23
2017-10-05T02:50:46.505Z,1002.17
2017-10-05T02:51:46.489Z,1002.19
2017-10-05T02:52:46.475Z,1002.1
2017-10-05T02:53:46.455Z,1002.13
2017-10-05T02:54:46.438Z,1002.07
2017-10-05T02:55:46.420Z,1002.03
2017-10-05T02:56:46.406Z,1002.03
2017-10-05T02:57:46.391Z,1001.96
2017-10-05T02:58:46.372Z,1001.96
2017-10-05T02:59:46.357Z,1001.91
2017-10-05T03:00:46.342Z,1001.9
2017-10-05T03:01:46.324Z,1001.81
2017-10-05T03:02:46.306Z,1001.78
2017-10-05T03:03:46.294Z,1001.81
2017-10-05T03:04:46.275Z,1001.77
2017-10-05T03:05:46.258Z,1001.73
2017-10-05T03:06:46.241Z,1001.69
2017-10-05T03:07:46.224Z,1001.78
2017-10-05T03:08:46.207Z,1001.7
2017-10-05T03:09:46.192Z,1001.57
2017-10-05T03:10:46.176Z,1001.6
2017-10-05T03:11:46.160Z,1001.57
2017-10-05T03:12:46.142Z,1001.53
2017-10-05T03:13:46.125Z,1001.52
2017-10-05T03:14:46.110Z,1001.45
2017-10-05T03:15:46.094Z,1001.44
2017-10-05T03:16:46.076Z,1001.43
2017-10-05T03:17:46.061Z,1001.41
2017-10-05T03:18:46.041Z,1001.37
2017-10-05T03:19:46.026Z,1001.4
2017-10-05T03:20:46.010Z,1001.4
2017-10-05T03:21:45.994Z,1001.36
2017-10-05T03:22:45.977Z,1001.35
2017-10-05T03:23:45.965Z,1001.37
2017-10-05T03:24:45.944Z,1001.36
2017-10-05T03:25:45.926Z,1001.37
2017-10-05T03:26:45.910Z,1001.31
2017-10-05T03:27:45.893Z,1001.29
2017-10-05T03:28:45.880Z,1001.35
2017-10-05T03:29:45.860Z,1001.23
2017-10-05T03:30:45.848Z,1001.19
2017-10-05T03:31:45.828Z,1001.2
2017-10-05T03:32:45.811Z,1001.19
2017-10-05T03:33:45.796Z,1001.18
2017-10-05T03:34:45.779Z,1001.13
2017-10-05T03:35:45.765Z,1001.06
2017-10-05T03:36:45.745Z,1001.07
2017-10-05T03:37:45.733Z,1001
2017-10-05T03:38:45.715Z,1000.95
2017-10-05T03:39:45.695Z,1000.92
2017-10-05T03:40:45.679Z,1000.9
2017-10-05T03:41:45.661Z,1000.83
2017-10-05T03:42:45.648Z,1000.8
2017-10-05T03:43:45.631Z,1000.72
2017-10-05T03:44:45.612Z,1000.67
2017-10-05T03:45:45.595Z,1000.64
2017-10-05T03:46:45.580Z,1000.67
2017-10-05T03:47:45.562Z,1000.63
2017-10-05T03:48:45.554Z,1000.62
2017-10-05T03:49:45.531Z,1000.57
2017-10-05T03:50:45.516Z,1000.56
2017-10-05T03:51:45.497Z,1000.49
2017-10-05T03:52:45.481Z,1000.57
2017-10-05T03:53:45.463Z,1000.52
2017-10-05T03:54:45.451Z,1000.56
2017-10-05T03:55:45.431Z,1000.57
2017-10-05T03:56:45.416Z,1000.47
2017-10-05T03:57:45.398Z,1000.49
2017-10-05T03:58:45.380Z,1000.41
2017-10-05T03:59:45.364Z,1000.38
2017-10-05T04:00:45.346Z,1000.37
2017-10-05T04:01:45.336Z,1000.27
2017-10-05T04:02:45.313Z,1000.24
2017-10-05T04:03:45.306Z,1000.15
2017-10-05T04:04:45.289Z,1000.18
2017-10-05T04:05:45.265Z,1000.15
2017-10-05T04:06:45.252Z,1000.23
2017-10-05T04:07:45.230Z,1000.13
2017-10-05T04:08:45.221Z,1000.14
2017-10-05T04:09:45.197Z,1000.11
2017-10-05T04:10:45.182Z,1000.08
2017-10-05T04:11:45.366Z,1000.1
2017-10-05T04:12:45.152Z,1000.15
2017-10-05T04:13:45.132Z,1000.06
2017-10-05T04:14:45.116Z,1000
2017-10-05T04:15:45.100Z,1000.06
2017-10-05T04:16:45.083Z,1000.03
2017-10-05T04:17:45.068Z,1000.01
2017-10-05T04:18:45.050Z,999.94
2017-10-05T04:19:45.036Z,999.95
2017-10-05T04:20:45.017Z,999.88
2017-10-05T04:21:45.001Z,999.72
2017-10-05T04:22:44.983Z,999.66
2017-10-05T04:23:44.977Z,999.6
2017-10-05T04:24:44.949Z,999.51
2017-10-05T04:25:44.934Z,999.51
2017-10-05T04:26:44.917Z,999.54
2017-10-05T04:27:44.903Z,999.59
2017-10-05T04:28:44.885Z,999.55
2017-10-05T04:29:44.868Z,999.55
2017-10-05T04:30:44.853Z,999.57
2017-10-05T04:31:44.843Z,999.57
2017-10-05T04:32:44.817Z,999.52
2017-10-05T04:33:44.803Z,999.48
2017-10-05T04:34:44.786Z,999.47
2017-10-05T04:35:44.769Z,999.53
2017-10-05T04:36:44.752Z,999.5
2017-10-05T04:37:44.736Z,999.4
2017-10-05T04:38:44.720Z,999.43
2017-10-05T04:39:44.705Z,999.47
2017-10-05T04:40:44.690Z,999.43
2017-10-05T04:41:44.672Z,999.42
2017-10-05T04:42:44.654Z,999.42
2017-10-05T04:43:44.639Z,999.33
2017-10-05T04:44:44.622Z,999.25
2017-10-05T04:45:44.613Z,999.35
2017-10-05T04:46:44.589Z,999.32
2017-10-05T04:47:44.575Z,999.32
2017-10-05T04:48:44.560Z,999.25
2017-10-05T04:49:44.541Z,999.17
2017-10-05T04:50:44.524Z,999.13
2017-10-05T04:51:44.507Z,999.15
2017-10-05T04:52:44.491Z,999.07
2017-10-05T04:53:44.473Z,999.04
2017-10-05T04:54:44.460Z,998.99
2017-10-05T04:55:44.440Z,999.02
2017-10-05T04:56:44.425Z,998.95
2017-10-05T04:57:44.407Z,999
2017-10-05T04:58:44.391Z,998.91
2017-10-05T04:59:44.375Z,998.92
2017-10-05T05:00:44.357Z,998.98
2017-10-05T05:01:44.344Z,998.92
2017-10-05T05:02:44.326Z,998.94
2017-10-05T05:03:44.309Z,998.89
2017-10-05T05:04:44.291Z,998.88
2017-10-05T05:05:44.274Z,998.83
2017-10-05T05:06:44.262Z,998.8
2017-10-05T05:07:44.250Z,998.78
2017-10-05T05:08:44.225Z,998.74
2017-10-05T05:09:44.211Z,998.8
2017-10-05T05:10:44.196Z,998.79
2017-10-05T05:11:44.176Z,998.66
2017-10-05T05:12:44.160Z,998.61
2017-10-05T05:13:44.147Z,998.6
2017-10-05T05:14:44.130Z,998.57
2017-10-05T05:15:44.110Z,998.43
2017-10-05T05:16:44.093Z,998.45
2017-10-05T05:17:44.076Z,998.48
2017-10-05T05:18:44.060Z,998.39
2017-10-05T05:19:44.043Z,998.43
2017-10-05T05:20:44.027Z,998.46
2017-10-05T05:21:44.013Z,998.45
2017-10-05T05:22:43.995Z,998.43
2017-10-05T05:23:43.977Z,998.41
2017-10-05T05:24:43.963Z,998.33
2017-10-05T05:25:43.952Z,998.38
2017-10-05T05:26:43.928Z,998.33
2017-10-05T05:27:43.911Z,998.21
2017-10-05T05:28:43.895Z,998.2
2017-10-05T05:29:43.878Z,998.17
2017-10-05T05:30:43.865Z,998.15
2017-10-05T05:31:43.846Z,998.02
2017-10-05T05:32:43.831Z,998.07
2017-10-05T05:33:43.811Z,997.93
2017-10-05T05:34:43.797Z,997.97
2017-10-05T05:35:43.780Z,997.94
2017-10-05T05:36:43.765Z,997.93
2017-10-05T05:37:43.750Z,997.76
2017-10-05T05:38:43.730Z,997.77
2017-10-05T05:39:43.713Z,997.75
2017-10-05T05:40:43.698Z,997.86
2017-10-05T05:41:43.696Z,997.84
2017-10-05T05:42:43.667Z,997.88
2017-10-05T05:43:43.647Z,997.86
2017-10-05T05:44:43.630Z,997.83
2017-10-05T05:45:43.613Z,997.76
2017-10-05T05:46:43.598Z,997.82
2017-10-05T05:47:43.582Z,997.85
2017-10-05T05:48:43.564Z,997.69
2017-10-05T05:49:43.550Z,997.58
2017-10-05T05:50:43.536Z,997.64
2017-10-05T05:51:43.519Z,997.69
2017-10-05T05:52:43.498Z,997.51
2017-10-05T05:53:43.482Z,997.52
2017-10-05T05:54:43.468Z,997.44
2017-10-05T05:55:43.449Z,997.49
2017-10-05T05:56:43.434Z,997.52
2017-10-05T05:57:43.417Z,997.63
2017-10-05T05:58:43.400Z,997.41
2017-10-05T05:59:43.387Z,997.38
2017-10-05T06:00:43.368Z,997.34
2017-10-05T06:01:43.350Z,997.39
2017-10-05T06:02:43.336Z,997.34
2017-10-05T06:03:43.318Z,997.34
2017-10-05T06:04:43.302Z,997.31
2017-10-05T06:05:43.285Z,997.36
2017-10-05T06:06:43.270Z,997.35
2017-10-05T06:07:43.251Z,997.41
2017-10-05T06:08:43.237Z,997.41
2017-10-05T06:09:43.218Z,997.28
2017-10-05T06:10:43.204Z,997.24
2017-10-05T06:11:43.391Z,997.29
2017-10-05T06:12:43.170Z,997.13
2017-10-05T06:13:43.154Z,997.1
2017-10-05T06:14:43.139Z,997.19
2017-10-05T06:15:43.121Z,997.19
2017-10-05T06:16:43.105Z,996.98
2017-10-05T06:17:43.088Z,997.07
2017-10-05T06:18:43.073Z,997.15
2017-10-05T06:19:43.055Z,996.94
2017-10-05T06:20:43.041Z,997
2017-10-05T06:21:43.023Z,997.09
2017-10-05T06:22:43.013Z,997.04
2017-10-05T06:23:42.991Z,997.11
2017-10-05T06:24:42.977Z,997.07
2017-10-05T06:25:42.959Z,996.94
2017-10-05T06:26:42.943Z,996.95
2017-10-05T06:27:42.925Z,996.94
2017-10-05T06:28:42.918Z,996.85
2017-10-05T06:29:42.893Z,996.93
2017-10-05T06:30:42.876Z,996.94
2017-10-05T06:31:42.859Z,996.97
2017-10-05T06:32:42.843Z,996.96
2017-10-05T06:33:42.827Z,996.92
2017-10-05T06:34:42.811Z,996.97
2017-10-05T06:35:42.796Z,996.89
2017-10-05T06:36:42.779Z,996.86
2017-10-05T06:37:42.761Z,996.8
2017-10-05T06:38:42.744Z,996.79
2017-10-05T06:39:42.736Z,996.76
2017-10-05T06:40:42.711Z,996.86
2017-10-05T06:41:42.695Z,996.67
2017-10-05T06:42:42.682Z,996.82
2017-10-05T06:43:42.667Z,996.55
2017-10-05T06:44:42.647Z,996.78
2017-10-05T06:45:42.630Z,996.7
2017-10-05T06:46:42.612Z,996.59
2017-10-05T06:47:42.599Z,996.59
2017-10-05T06:48:42.581Z,996.49
2017-10-05T06:49:42.564Z,996.52
2017-10-05T06:50:42.546Z,996.6
2017-10-05T06:51:42.530Z,996.59
2017-10-05T06:52:42.514Z,996.5
2017-10-05T06:53:42.499Z,996.56
2017-10-05T06:54:42.482Z,996.58
2017-10-05T06:55:42.467Z,996.52
2017-10-05T06:56:42.451Z,996.48
2017-10-05T06:57:42.432Z,996.49
2017-10-05T06:58:42.426Z,996.52
2017-10-05T06:59:42.401Z,996.43
2017-10-05T07:00:42.386Z,996.47
2017-10-05T07:01:42.368Z,996.41
2017-10-05T07:02:42.353Z,996.51
2017-10-05T07:03:42.341Z,996.44
2017-10-05T07:04:42.321Z,996.48
2017-10-05T07:05:42.303Z,996.6
2017-10-05T07:06:42.287Z,996.46
2017-10-05T07:07:42.270Z,996.51
2017-10-05T07:08:42.254Z,996.36
2017-10-05T07:09:42.240Z,996.3
2017-10-05T07:10:42.224Z,996.31
2017-10-05T07:11:42.206Z,996.47
2017-10-05T07:12:42.192Z,996.25
2017-10-05T07:13:42.174Z,996.31
2017-10-05T07:14:42.158Z,996.3
2017-10-05T07:15:42.140Z,996.28
2017-10-05T07:16:42.124Z,996.28
2017-10-05T07:17:42.112Z,996.26
2017-10-05T07:18:42.092Z,996.19
2017-10-05T07:19:42.078Z,996.16
2017-10-05T07:20:42.064Z,996.13
2017-10-05T07:21:42.045Z,996.08
2017-10-05T07:22:42.027Z,996.12
2017-10-05T07:23:42.014Z,996.15
2017-10-05T07:24:41.996Z,996.13
2017-10-05T07:25:41.983Z,996.03
2017-10-05T07:26:41.965Z,996.34
2017-10-05T07:27:41.947Z,996.07
2017-10-05T07:28:41.935Z,996.14
2017-10-05T07:29:41.918Z,996.04
2017-10-05T07:30:41.900Z,996.11
2017-10-05T07:31:41.886Z,996.08
2017-10-05T07:32:41.866Z,996.12
2017-10-05T07:33:41.854Z,996.1
2017-10-05T07:34:41.835Z,996.07
2017-10-05T07:35:41.819Z,996.02
2017-10-05T07:36:41.806Z,996.07
2017-10-05T07:37:41.786Z,996.08
2017-10-05T07:38:41.771Z,995.99
2017-10-05T07:39:41.758Z,996.15
2017-10-05T07:40:41.741Z,996.1
2017-10-05T07:41:41.722Z,996.03
2017-10-05T07:42:41.706Z,995.95
2017-10-05T07:43:41.693Z,995.96
2017-10-05T07:44:41.675Z,995.92
2017-10-05T07:45:41.663Z,995.91
2017-10-05T07:46:41.642Z,996.02
2017-10-05T07:47:41.626Z,995.96
2017-10-05T07:48:41.611Z,996.01
2017-10-05T07:49:41.595Z,995.91
2017-10-05T07:50:41.579Z,995.94
2017-10-05T07:51:41.563Z,995.99
2017-10-05T07:52:41.549Z,995.86
2017-10-05T07:53:41.530Z,995.83
2017-10-05T07:54:41.515Z,995.68
2017-10-05T07:55:41.499Z,995.81
2017-10-05T07:56:41.514Z,995.76
2017-10-05T07:57:41.467Z,995.77
2017-10-05T07:58:41.450Z,995.65
2017-10-05T07:59:41.437Z,995.7
2017-10-05T08:00:41.423Z,995.75
2017-10-05T08:01:41.404Z,995.66
2017-10-05T08:02:41.391Z,995.75
2017-10-05T08:03:41.370Z,995.53
2017-10-05T08:04:41.355Z,995.59
2017-10-05T08:05:41.339Z,995.58
2017-10-05T08:06:41.324Z,995.71
2017-10-05T08:07:41.309Z,995.6
2017-10-05T08:08:41.289Z,995.52
2017-10-05T08:09:41.276Z,995.63
2017-10-05T08:10:41.258Z,995.65
2017-10-05T08:11:41.444Z,995.51
2017-10-05T08:12:41.227Z,995.51
2017-10-05T08:13:41.212Z,995.51
2017-10-05T08:14:41.193Z,995.5
2017-10-05T08:15:41.183Z,995.61
2017-10-05T08:16:41.167Z,995.53
2017-10-05T08:17:41.148Z,995.4
2017-10-05T08:18:41.132Z,995.47
2017-10-05T08:19:41.119Z,995.51
2017-10-05T08:20:41.099Z,995.47
2017-10-05T08:21:41.083Z,995.41
2017-10-05T08:22:41.067Z,995.44
2017-10-05T08:23:41.052Z,995.29
2017-10-05T08:24:41.036Z,995.45
2017-10-05T08:25:41.021Z,995.44
2017-10-05T08:26:41.008Z,995.36
2017-10-05T08:27:40.990Z,995.24
2017-10-05T08:28:40.983Z,995.4
2017-10-05T08:29:40.958Z,995.32
2017-10-05T08:30:40.943Z,995.37
2017-10-05T08:31:40.926Z,995.27
2017-10-05T08:32:40.910Z,995.24
2017-10-05T08:33:40.900Z,995.34
2017-10-05T08:34:40.880Z,995.26
2017-10-05T08:35:40.867Z,995.21
2017-10-05T08:36:40.848Z,995.6
2017-10-05T08:37:40.834Z,995.12
2017-10-05T08:38:40.818Z,995.09
2017-10-05T08:39:40.804Z,995.53
2017-10-05T08:40:40.789Z,995.32
2017-10-05T08:41:40.771Z,995.24
2017-10-05T08:42:40.756Z,995.2
2017-10-05T08:43:40.742Z,995.24
2017-10-05T08:44:40.724Z,995.46
2017-10-05T08:45:40.710Z,995.21
2017-10-05T08:46:40.694Z,995.18
2017-10-05T08:47:40.678Z,995.17
2017-10-05T08:48:40.662Z,995.12
2017-10-05T08:49:40.651Z,995.18
2017-10-05T08:50:40.634Z,995.18
2017-10-05T08:51:40.616Z,995.34
2017-10-05T08:52:40.600Z,995.22
2017-10-05T08:53:40.585Z,995.06
2017-10-05T08:54:40.568Z,995.07
2017-10-05T08:55:40.557Z,995.21
2017-10-05T08:56:40.539Z,995.21
2017-10-05T08:57:40.522Z,995.03
2017-10-05T08:58:40.509Z,995.05
2017-10-05T08:59:40.499Z,995.1
2017-10-05T09:00:40.493Z,994.98
2017-10-05T09:01:40.469Z,995
2017-10-05T09:02:40.447Z,995.13
2017-10-05T09:03:40.432Z,995
2017-10-05T09:04:40.421Z,994.97
2017-10-05T09:05:40.400Z,995.08
2017-10-05T09:06:40.387Z,995.15
2017-10-05T09:07:40.370Z,995.13
2017-10-05T09:08:40.355Z,995.02
2017-10-05T09:09:40.340Z,995.09
2017-10-05T09:10:40.328Z,995.15
2017-10-05T09:11:40.310Z,994.95
2017-10-05T09:12:40.297Z,995.16
2017-10-05T09:13:40.278Z,995
2017-10-05T09:14:40.263Z,995
2017-10-05T09:15:40.248Z,994.91
2017-10-05T09:16:40.231Z,994.88
2017-10-05T09:17:40.218Z,994.89
2017-10-05T09:18:40.208Z,994.91
2017-10-05T09:19:40.187Z,994.75
2017-10-05T09:20:40.173Z,994.95
2017-10-05T09:21:40.158Z,994.93
2017-10-05T09:22:40.142Z,995.01
2017-10-05T09:23:40.129Z,995.07
2017-10-05T09:24:40.113Z,995.12
2017-10-05T09:25:40.101Z,995.02
2017-10-05T09:26:40.085Z,994.99
2017-10-05T09:27:40.069Z,995.18
2017-10-05T09:28:40.056Z,995.09
2017-10-05T09:29:40.042Z,995.07
2017-10-05T09:30:40.024Z,995.03
2017-10-05T09:31:40.012Z,995.02
2017-10-05T09:32:39.995Z,995.06
2017-10-05T09:33:39.979Z,995.05
2017-10-05T09:34:39.964Z,994.99
2017-10-05T09:35:39.951Z,994.97
2017-10-05T09:36:39.936Z,995.05
2017-10-05T09:37:39.922Z,995.24
2017-10-05T09:38:39.905Z,994.96
2017-10-05T09:39:39.900Z,994.83
2017-10-05T09:40:39.877Z,995.06
2017-10-05T09:41:39.864Z,995.17
2017-10-05T09:42:39.846Z,994.9
2017-10-05T09:43:39.833Z,995.01
2017-10-05T09:44:39.818Z,995.02
2017-10-05T09:45:39.803Z,994.91
2017-10-05T09:46:39.789Z,995.07
2017-10-05T09:47:39.776Z,994.88
2017-10-05T09:48:39.761Z,994.99
2017-10-05T09:49:39.744Z,994.91
2017-10-05T09:50:39.729Z,994.98
2017-10-05T09:51:39.718Z,995.04
2017-10-05T09:52:39.702Z,995.07
2017-10-05T09:53:39.689Z,995.14
2017-10-05T09:54:39.672Z,995.16
2017-10-05T09:55:39.661Z,994.95
2017-10-05T09:56:39.647Z,994.98
2017-10-05T09:57:39.632Z,995.13
2017-10-05T09:58:39.618Z,995.32
2017-10-05T09:59:39.605Z,995.21
2017-10-05T10:00:39.585Z,995.4
2017-10-05T10:01:39.573Z,995.32
2017-10-05T10:02:39.561Z,995.51
2017-10-05T10:03:39.549Z,995.45
2017-10-05T10:04:39.532Z,995.53
2017-10-05T10:05:39.519Z,995.59
2017-10-05T10:06:39.505Z,995.61
2017-10-05T10:07:39.489Z,995.65
2017-10-05T10:08:39.475Z,995.55
2017-10-05T10:09:39.462Z,995.6
2017-10-05T10:10:39.448Z,995.67
2017-10-05T10:11:39.637Z,995.89
2017-10-05T10:12:39.420Z,995.75
2017-10-05T10:13:39.407Z,995.8
2017-10-05T10:14:39.395Z,995.91
2017-10-05T10:15:39.378Z,995.89
2017-10-05T10:16:39.365Z,995.9
2017-10-05T10:17:39.351Z,996.03
2017-10-05T10:18:39.340Z,996.02
2017-10-05T10:19:39.321Z,996.09
2017-10-05T10:20:39.310Z,996.11
2017-10-05T10:21:39.300Z,996.2
2017-10-05T10:22:39.282Z,996.25
2017-10-05T10:23:39.268Z,996.37
2017-10-05T10:24:39.254Z,996.33
2017-10-05T10:25:39.242Z,996.46
2017-10-05T10:26:39.230Z,996.51
2017-10-05T10:27:39.214Z,996.58
2017-10-05T10:28:39.199Z,996.64
2017-10-05T10:29:39.185Z,996.63
2017-10-05T10:30:39.172Z,996.48
2017-10-05T10:31:39.159Z,996.81
2017-10-05T10:32:39.144Z,996.71
2017-10-05T10:33:39.130Z,996.7
2017-10-05T10:34:39.119Z,996.8
2017-10-05T10:35:39.104Z,996.96
2017-10-05T10:36:39.090Z,996.81
2017-10-05T10:37:39.078Z,996.92
2017-10-05T10:38:39.062Z,997.14
2017-10-05T10:39:39.052Z,997.19
2017-10-05T10:40:39.038Z,997.13
2017-10-05T10:41:39.025Z,997.18
2017-10-05T10:42:39.009Z,997.21
2017-10-05T10:43:38.996Z,997.36
2017-10-05T10:44:38.982Z,997.33
2017-10-05T10:45:38.967Z,997.22
2017-10-05T10:46:38.956Z,997.36
2017-10-05T10:47:38.961Z,997.57
2017-10-05T10:48:38.929Z,997.4
2017-10-05T10:49:38.915Z,997.47
2017-10-05T10:50:38.902Z,997.58
2017-10-05T10:51:38.887Z,997.59
2017-10-05T10:52:38.874Z,997.52
2017-10-05T10:53:38.863Z,997.58
2017-10-05T10:54:38.853Z,997.68
2017-10-05T10:55:38.834Z,997.67
2017-10-05T10:56:38.822Z,997.65
2017-10-05T10:57:38.810Z,997.76
2017-10-05T10:58:38.798Z,998.12
2017-10-05T10:59:38.785Z,997.81
2017-10-05T11:00:38.772Z,997.78
2017-10-05T11:01:38.761Z,997.8
2017-10-05T11:02:38.749Z,997.92
2017-10-05T11:03:38.733Z,997.89
2017-10-05T11:04:38.723Z,997.9
2017-10-05T11:05:38.710Z,997.98
2017-10-05T11:06:38.696Z,997.92
2017-10-05T11:07:38.685Z,998.06
2017-10-05T11:08:38.676Z,998.01
2017-10-05T11:09:38.661Z,998.08
2017-10-05T11:10:38.657Z,998.06
2017-10-05T11:11:38.637Z,998.28
2017-10-05T11:12:38.625Z,998.15
2017-10-05T11:13:38.613Z,998.19
2017-10-05T11:14:38.599Z,998.24
2017-10-05T11:15:38.587Z,998.3
2017-10-05T11:16:38.576Z,998.29
2017-10-05T11:17:38.570Z,998.63
2017-10-05T11:18:38.555Z,998.39
2017-10-05T11:19:38.545Z,998.49
2017-10-05T11:20:38.529Z,998.5
2017-10-05T11:21:38.518Z,998.48
2017-10-05T11:22:38.505Z,998.7
2017-10-05T11:23:38.493Z,998.77
2017-10-05T11:24:38.481Z,998.64
2017-10-05T11:25:38.469Z,998.66
2017-10-05T11:26:38.460Z,998.7
2017-10-05T11:27:38.448Z,998.94
2017-10-05T11:28:38.433Z,998.98
2017-10-05T11:29:38.424Z,998.77
2017-10-05T11:30:38.414Z,999.07
2017-10-05T11:31:38.398Z,998.93
2017-10-05T11:32:38.409Z,998.99
2017-10-05T11:33:38.377Z,999.02
2017-10-05T11:34:38.367Z,999.06
2017-10-05T11:35:38.359Z,999.1
2017-10-05T11:36:38.345Z,999.1
2017-10-05T11:37:38.331Z,999.27
2017-10-05T11:38:38.325Z,999.17
2017-10-05T11:39:38.312Z,999.39
2017-10-05T11:40:38.301Z,999.24
2017-10-05T11:41:38.289Z,999.53
2017-10-05T11:42:38.288Z,999.33
2017-10-05T11:43:38.266Z,999.53
2017-10-05T11:44:38.254Z,999.36
2017-10-05T11:45:38.244Z,999.36
2017-10-05T11:46:38.231Z,999.39
2017-10-05T11:47:38.217Z,999.38
2017-10-05T11:48:38.204Z,999.36
2017-10-05T11:49:38.196Z,999.39
2017-10-05T11:50:38.184Z,999.43
2017-10-05T11:51:38.171Z,999.41
2017-10-05T11:52:38.157Z,999.4
2017-10-05T11:53:38.146Z,999.38
2017-10-05T11:54:38.136Z,999.54
2017-10-05T11:55:38.120Z,999.75
2017-10-05T11:56:38.112Z,999.76
2017-10-05T11:57:38.094Z,999.67
2017-10-05T11:58:38.084Z,999.58
2017-10-05T11:59:38.070Z,999.77
2017-10-05T12:00:38.067Z,999.72
2017-10-05T12:01:38.050Z,999.84
2017-10-05T12:02:38.038Z,999.77
2017-10-05T12:03:38.031Z,999.73
2017-10-05T12:04:38.022Z,999.83
2017-10-05T12:05:38.007Z,999.85
2017-10-05T12:06:37.998Z,999.8
2017-10-05T12:07:37.990Z,999.84
2017-10-05T12:08:37.977Z,999.92
2017-10-05T12:09:37.967Z,999.86
2017-10-05T12:10:37.960Z,999.9
2017-10-05T12:11:38.153Z,999.94
2017-10-05T12:12:37.941Z,1000
2017-10-05T12:13:37.931Z,1000.03
2017-10-05T12:14:37.917Z,1000.11
2017-10-05T12:15:37.910Z,1000.21
2017-10-05T12:16:37.899Z,1000.25
2017-10-05T12:17:37.887Z,1000.29
2017-10-05T12:18:37.877Z,1000.42
2017-10-05T12:19:37.870Z,1000.45
2017-10-05T12:20:37.855Z,1000.39
2017-10-05T12:21:37.845Z,1000.5
2017-10-05T12:22:37.834Z,1000.37
2017-10-05T12:23:37.825Z,1000.51
2017-10-05T12:24:37.814Z,1000.49